This is the latest recevied weather packets stored in our database for station/object 9A7DI-13. If no packets are shown the sender has not sent any weather packets the latest 10 day(s).
| Time | Temp. | Humidity | Pressure | Rain* | Wind** | Luminosity | Snow |
|---|---|---|---|---|---|---|---|
| 1777174045 | 7.22° C | 71% | 1023.2 hPa | - | - | - | - |
| 1777173445 | 7.22° C | 72% | 1023.2 hPa | - | - | - | - |
| 1777172845 | 7.22° C | 72% | 1023.1 hPa | - | - | - | - |
| 1777172245 | 6.67° C | 73% | 1023 hPa | - | - | - | - |
| 1777171645 | 6.67° C | 71% | 1023.1 hPa | - | - | - | - |
| 1777171045 | 6.67° C | 70% | 1022.5 hPa | - | - | - | - |
| 1777170445 | 6.67° C | 70% | 1022.4 hPa | - | - | - | - |
| 1777169845 | 7.22° C | 69% | 1022.2 hPa | - | - | - | - |
| 1777169245 | 7.22° C | 68% | 1022.1 hPa | - | - | - | - |
| 1777168645 | 7.22° C | 69% | 1022 hPa | - | - | - | - |
| 1777168045 | 6.67° C | 71% | 1022 hPa | - | - | - | - |
| 1777167445 | 6.67° C | 69% | 1021.9 hPa | - | - | - | - |
| 1777166845 | 7.78° C | 67% | 1022 hPa | - | - | - | - |
| 1777166245 | 7.78° C | 68% | 1021.9 hPa | - | - | - | - |
| 1777165645 | 7.78° C | 67% | 1021.8 hPa | - | - | - | - |
| 1777165045 | 7.78° C | 67% | 1021.8 hPa | - | - | - | - |
| 1777164445 | 7.78° C | 67% | 1021.9 hPa | - | - | - | - |
| 1777163845 | 7.78° C | 69% | 1021.8 hPa | - | - | - | - |
| 1777163245 | 8.33° C | 66% | 1021.9 hPa | - | - | - | - |
| 1777162645 | 9.44° C | 63% | 1021.7 hPa | - | - | - | - |
| 1777162045 | 8.89° C | 63% | 1021.8 hPa | - | - | - | - |
| 1777161445 | 8.33° C | 66% | 1021.8 hPa | - | - | - | - |
| 1777160845 | 9.44° C | 63% | 1021.7 hPa | - | - | - | - |
| 1777160245 | 9.44° C | 63% | 1021.8 hPa | - | - | - | - |
| 1777159645 | 8.89° C | 64% | 1021.8 hPa | - | - | - | - |
* Rain since midnight (hover to see other rain measurements)
** Current wind speed in m/s (hover to see current wind gust speed)